aviador You're here:

KPNC Decoded Metar

PONCA CITY in OK, USA
Report Time2018-02-22 05:53:00
UTC Time2018-02-22 06:46:03
Flight Rules ifr IFR
Wind060° at 09 kt
W.Decomp.*RWY 35: 3.8 kt HW 8.2 kt RCW
W.Rank060° ranks 22
Current wind is above 060° avg. (7.9)
Visibility8047 m
Phenomena:Mist
Clouds:Overcast 005 Hf
Expected CloudBase > 800 ft AGL from Temp-Dew spread
Ceiling500 ft
Temp-2°C (ISA -15)
Dew Point-4°C (86% RH)
AAT-7.7°C
QNH1028 hPa
Density Alt-1,270 ft
Elevation1,010 ft
Report Wrong Elevation
Raw Report
KPNC 220553Z AUTO 06009KT 5SM BR OVC005 M02/M04 A3037 RMK AO2
SLP293 60001 I6002 T10221039 11022 21028 410221067 56004=

Extra information for KPNC:More info

Metar Taf Metar & Taf Last 4 Metars F.Rules Stats Wind Profile Meteogram Temp Stats Airport Information Weather charts Add Link Nearby VenuesMetar ALERT Operation Metar Decoded Social comments

AIRNAV info for KPNC